Time;durP1;ratioP1;P1;durP2;ratioP2;P2;SDS_P1;SDS_P2;PMS_P1;PMS_P2;Temp;Humidity;BMP_temperature;BMP_pressure;BME280_temperature;BME280_humidity;BME280_pressure;Samples;Min_cycle;Max_cycle;Signal;HPM_P1;HPM_P2
2021/08/04 00:02:02;;;;;;;4.38;3.00;;;16.20;99.10;;;;;;5026988;28;20034;-91
2021/08/04 00:04:27;;;;;;;15.02;4.38;;;16.20;99.10;;;;;;5025148;28;20045;-91
2021/08/04 00:06:53;;;;;;;6.22;3.90;;;16.20;99.10;;;;;;5038873;28;20065;-90
2021/08/04 00:09:18;;;;;;;6.93;3.60;;;16.20;99.20;;;;;;5022838;28;20066;-91
2021/08/04 00:11:44;;;;;;;5.38;3.38;;;16.20;99.20;;;;;;5022439;28;20077;-90
2021/08/04 00:14:09;;;;;;;5.35;3.40;;;16.20;99.20;;;;;;5039324;28;20052;-90
2021/08/04 00:16:35;;;;;;;3.90;3.08;;;16.20;99.20;;;;;;5038553;28;20401;-90
2021/08/04 00:19:00;;;;;;;6.53;3.58;;;16.20;99.30;;;;;;5029668;28;20045;-90
2021/08/04 00:21:26;;;;;;;6.38;3.65;;;16.20;99.30;;;;;;5041445;28;20084;-90
2021/08/04 00:23:52;;;;;;;7.75;3.88;;;16.20;99.40;;;;;;5021618;28;20045;-90
2021/08/04 00:26:17;;;;;;;5.03;3.28;;;16.20;99.40;;;;;;5025402;28;20033;-90
2021/08/04 00:28:43;;;;;;;4.35;3.55;;;16.20;99.30;;;;;;5026461;28;20111;-89
2021/08/04 00:31:09;;;;;;;4.70;3.67;;;16.30;99.50;;;;;;5042233;28;20059;-89
2021/08/04 00:33:34;;;;;;;9.52;3.97;;;16.30;99.50;;;;;;5029053;28;20121;-90
2021/08/04 00:36:00;;;;;;;7.50;3.72;;;16.30;99.50;;;;;;5025958;28;20052;-91
2021/08/04 00:38:25;;;;;;;5.25;3.40;;;16.30;99.50;;;;;;5030374;28;20072;-91
2021/08/04 00:40:51;;;;;;;8.75;3.72;;;16.30;99.60;;;;;;5030632;28;20034;-89
2021/08/04 00:43:17;;;;;;;4.47;3.30;;;16.40;99.60;;;;;;5031785;28;20045;-90
2021/08/04 00:45:42;;;;;;;5.47;3.70;;;16.40;99.60;;;;;;5028018;28;20049;-90
2021/08/04 00:48:08;;;;;;;11.57;3.55;;;16.40;99.60;;;;;;5026283;28;20034;-91
2021/08/04 00:50:35;;;;;;;5.88;3.90;;;16.50;99.60;;;;;;5026349;28;20342;-89
2021/08/04 00:53:15;;;;;;;5.38;3.45;;;16.50;99.60;;;;;;5025173;28;20125;-90
2021/08/04 00:55:41;;;;;;;5.90;3.53;;;16.50;99.60;;;;;;5032288;28;20025;-89
2021/08/04 00:58:06;;;;;;;4.18;3.10;;;16.50;99.50;;;;;;5030731;28;20117;-91
2021/08/04 01:00:32;;;;;;;4.22;2.80;;;16.50;99.50;;;;;;5024408;28;20045;-90
2021/08/04 01:03:06;;;;;;;4.13;2.92;;;16.60;99.50;;;;;;5034435;28;20072;-90
2021/08/04 01:05:40;;;;;;;5.25;3.17;;;16.60;99.50;;;;;;5046224;28;20109;-90
2021/08/04 01:08:08;;;;;;;3.92;3.13;;;16.60;99.40;;;;;;5034464;28;20156;-89
2021/08/04 01:10:39;;;;;;;3.85;3.08;;;16.60;99.40;;;;;;5029471;28;20034;-91
2021/08/04 01:13:20;;;;;;;5.80;3.42;;;16.60;99.40;;;;;;5026130;28;20025;-91
2021/08/04 01:15:52;;;;;;;6.32;3.13;;;16.60;99.40;;;;;;5041854;28;20046;-92
2021/08/04 01:18:22;;;;;;;4.18;3.22;;;16.60;99.50;;;;;;5028642;28;20104;-91
2021/08/04 01:20:48;;;;;;;5.95;3.53;;;16.60;99.50;;;;;;5040895;28;20041;-90
2021/08/04 01:23:42;;;;;;;7.10;3.40;;;16.70;99.60;;;;;;5041202;28;20041;-90
2021/08/04 01:26:28;;;;;;;7.05;2.78;;;16.70;99.60;;;;;;5041850;28;20045;-90
2021/08/04 01:28:56;;;;;;;3.08;2.60;;;16.70;99.70;;;;;;5036427;28;20029;-90
2021/08/04 01:31:26;;;;;;;4.88;2.72;;;16.80;99.70;;;;;;5024425;28;20305;-90
2021/08/04 01:33:53;;;;;;;3.28;2.50;;;16.80;99.70;;;;;;5030813;28;20041;-89
2021/08/04 01:36:19;;;;;;;6.75;3.63;;;16.80;99.70;;;;;;5025354;28;20041;-89
2021/08/04 01:38:45;;;;;;;4.05;2.88;;;16.90;99.70;;;;;;5026144;28;20054;-90
2021/08/04 01:41:13;;;;;;;4.00;2.78;;;16.90;99.60;;;;;;5024219;28;20033;-91
2021/08/04 01:43:40;;;;;;;4.00;2.70;;;16.90;99.60;;;;;;5024404;28;20048;-91
2021/08/04 01:46:07;;;;;;;3.85;3.08;;;17.00;99.60;;;;;;5046628;28;20045;-91
2021/08/04 01:48:35;;;;;;;4.35;3.30;;;17.00;99.60;;;;;;5024938;28;20361;-91
2021/08/04 01:51:05;;;;;;;3.90;2.55;;;17.00;99.60;;;;;;5025150;28;20374;-91
2021/08/04 01:53:32;;;;;;;6.00;2.92;;;17.10;99.60;;;;;;5008208;28;20118;-90
2021/08/04 01:55:59;;;;;;;3.45;2.72;;;17.10;99.60;;;;;;5041468;28;20029;-91
2021/08/04 01:58:25;;;;;;;4.15;2.75;;;17.10;99.60;;;;;;5024759;28;20029;-90
2021/08/04 02:00:51;;;;;;;5.95;2.53;;;17.10;99.60;;;;;;5024526;28;20463;-91
2021/08/04 02:03:16;;;;;;;7.20;3.13;;;17.10;99.60;;;;;;5024125;28;20184;-90
2021/08/04 02:05:45;;;;;;;5.05;2.63;;;17.20;99.60;;;;;;5024700;28;20037;-90
2021/08/04 02:08:49;;;;;;;8.95;2.78;;;17.20;99.60;;;;;;5027140;28;20045;-90
2021/08/04 02:11:20;;;;;;;4.15;2.35;;;17.20;99.70;;;;;;5023564;28;20034;-90
2021/08/04 02:14:00;;;;;;;4.10;2.42;;;17.20;99.70;;;;;;5032271;28;20136;-90
2021/08/04 02:17:00;;;;;;;4.05;2.85;;;17.20;99.70;;;;;;5037205;28;20022;-91
2021/08/04 02:19:31;;;;;;;5.53;3.13;;;17.30;99.80;;;;;;5047355;28;20042;-90
2021/08/04 02:22:07;;;;;;;6.25;2.80;;;17.30;99.90;;;;;;5034732;28;20049;-88
2021/08/04 02:24:38;;;;;;;7.50;3.22;;;17.30;99.90;;;;;;5027896;28;20033;-90
2021/08/04 02:27:04;;;;;;;6.35;2.90;;;17.30;99.90;;;;;;5029894;28;20124;-88
2021/08/04 02:29:34;;;;;;;7.25;3.33;;;17.30;99.90;;;;;;5024843;28;20042;-89
2021/08/04 02:32:01;;;;;;;5.63;2.55;;;17.30;99.90;;;;;;5022594;28;20069;-88
2021/08/04 02:34:28;;;;;;;3.90;2.83;;;17.30;99.90;;;;;;5039389;28;20045;-87
2021/08/04 02:36:54;;;;;;;4.70;3.08;;;17.40;99.90;;;;;;5025143;28;20030;-88
2021/08/04 02:39:20;;;;;;;5.55;3.60;;;17.40;99.90;;;;;;5028815;28;20068;-89
2021/08/04 02:41:46;;;;;;;4.32;2.78;;;17.40;99.90;;;;;;5025517;28;20461;-88
2021/08/04 02:44:15;;;;;;;5.60;3.25;;;17.40;99.90;;;;;;5026825;28;20151;-88
2021/08/04 02:46:45;;;;;;;5.70;2.90;;;17.40;99.90;;;;;;5023090;28;20117;-87
2021/08/04 02:49:13;;;;;;;7.95;3.42;;;17.40;99.90;;;;;;5034324;28;20064;-88
2021/08/04 02:51:43;;;;;;;5.45;3.67;;;17.40;99.90;;;;;;5030467;28;20050;-88
2021/08/04 02:54:12;;;;;;;5.13;2.90;;;17.40;99.90;;;;;;5032803;28;20045;-89
2021/08/04 02:56:38;;;;;;;3.78;2.65;;;17.40;99.90;;;;;;5023035;28;20121;-88
2021/08/04 02:59:03;;;;;;;6.72;3.72;;;17.40;99.90;;;;;;5025138;28;20356;-88
2021/08/04 03:01:29;;;;;;;6.57;3.10;;;17.40;99.90;;;;;;5029488;28;20037;-90
2021/08/04 03:03:55;;;;;;;5.10;3.15;;;17.40;99.90;;;;;;5019823;28;20092;-89
2021/08/04 03:06:20;;;;;;;5.85;3.08;;;17.40;99.90;;;;;;5031904;28;20045;-89
2021/08/04 03:08:46;;;;;;;7.03;3.58;;;17.40;99.90;;;;;;5030120;28;20046;-88
2021/08/04 03:11:11;;;;;;;7.07;2.90;;;17.40;99.90;;;;;;5024759;28;20038;-89
2021/08/04 03:13:37;;;;;;;7.70;3.63;;;17.30;99.90;;;;;;5034234;28;20084;-89
2021/08/04 03:16:03;;;;;;;9.88;3.30;;;17.40;99.90;;;;;;5029049;28;20097;-90
2021/08/04 03:18:29;;;;;;;5.75;3.33;;;17.30;99.90;;;;;;5024149;28;20137;-90
2021/08/04 03:20:55;;;;;;;7.18;3.70;;;17.40;99.90;;;;;;5019494;28;20060;-89
2021/08/04 03:23:20;;;;;;;6.38;3.60;;;17.30;99.90;;;;;;5033247;28;20406;-89
2021/08/04 03:25:46;;;;;;;6.10;3.75;;;17.30;99.90;;;;;;5031128;28;20042;-89
2021/08/04 03:28:13;;;;;;;7.82;3.60;;;17.30;99.90;;;;;;5022052;28;20034;-89
2021/08/04 03:30:38;;;;;;;8.82;3.65;;;17.30;99.90;;;;;;5041740;28;20042;-89
2021/08/04 03:33:04;;;;;;;7.43;3.78;;;17.40;99.90;;;;;;5039030;28;20105;-88
2021/08/04 03:35:30;;;;;;;9.07;4.00;;;17.30;99.90;;;;;;5029767;28;20038;-89
2021/08/04 03:37:55;;;;;;;5.75;4.07;;;17.40;99.90;;;;;;5035335;28;20147;-89
2021/08/04 03:40:21;;;;;;;5.97;3.33;;;17.30;99.90;;;;;;5032586;28;20029;-88
2021/08/04 03:42:47;;;;;;;4.57;3.22;;;17.30;99.90;;;;;;5049788;28;20088;-87
2021/08/04 03:45:12;;;;;;;6.15;3.97;;;17.40;99.90;;;;;;5037930;28;20064;-91
2021/08/04 03:47:38;;;;;;;8.00;3.63;;;17.40;99.90;;;;;;5035765;28;20038;-89
2021/08/04 03:50:05;;;;;;;7.28;4.00;;;17.40;99.90;;;;;;5024015;28;20034;-91
2021/08/04 03:52:30;;;;;;;8.65;3.22;;;17.40;99.90;;;;;;5024453;28;20034;-89
2021/08/04 03:54:56;;;;;;;6.00;3.40;;;17.40;99.90;;;;;;5031189;28;20107;-89
2021/08/04 03:57:23;;;;;;;8.70;3.38;;;17.40;99.90;;;;;;5032699;28;20040;-90
2021/08/04 03:59:48;;;;;;;5.35;3.58;;;17.40;99.90;;;;;;5028975;28;20034;-89
2021/08/04 04:02:14;;;;;;;8.82;3.92;;;17.40;99.90;;;;;;5023611;28;20034;-89
2021/08/04 04:04:39;;;;;;;4.63;2.95;;;17.40;99.90;;;;;;5019225;28;20326;-89
2021/08/04 04:07:05;;;;;;;5.72;3.88;;;17.40;99.90;;;;;;5030985;28;20369;-88
2021/08/04 04:09:31;;;;;;;5.82;3.53;;;17.40;99.90;;;;;;5022634;28;20316;-90
2021/08/04 04:11:56;;;;;;;6.82;4.00;;;17.40;99.90;;;;;;5023015;28;20048;-90
2021/08/04 04:14:22;;;;;;;11.13;3.53;;;17.40;99.90;;;;;;5023813;28;20038;-88
2021/08/04 04:16:47;;;;;;;7.57;3.83;;;17.40;99.90;;;;;;5023908;28;20033;-91
2021/08/04 04:19:13;;;;;;;3.97;3.00;;;17.40;99.90;;;;;;5020626;28;20037;-90
2021/08/04 04:21:39;;;;;;;6.00;3.47;;;17.50;99.90;;;;;;5023155;28;20042;-88
2021/08/04 04:24:04;;;;;;;5.88;3.90;;;17.50;99.90;;;;;;5040523;28;20025;-89
2021/08/04 04:26:30;;;;;;;8.57;3.38;;;17.50;99.90;;;;;;5036941;28;20029;-91
2021/08/04 04:28:56;;;;;;;4.47;3.60;;;17.50;99.90;;;;;;5035562;28;20046;-91
2021/08/04 04:31:22;;;;;;;8.45;3.95;;;17.50;99.90;;;;;;5013191;28;20026;-88
2021/08/04 04:33:48;;;;;;;6.13;3.30;;;17.60;99.90;;;;;;5022396;28;20409;-88
2021/08/04 04:36:13;;;;;;;4.65;3.38;;;17.60;99.90;;;;;;5021815;28;20068;-91
2021/08/04 04:38:40;;;;;;;8.35;3.63;;;17.60;99.90;;;;;;5025618;28;20034;-90
2021/08/04 04:41:06;;;;;;;8.35;3.70;;;17.60;99.90;;;;;;5037138;28;20037;-90
2021/08/04 04:43:38;;;;;;;4.43;3.28;;;17.60;99.90;;;;;;5021262;28;20093;-91
2021/08/04 04:46:08;;;;;;;8.55;3.78;;;17.70;99.90;;;;;;5020525;28;20053;-90
2021/08/04 04:48:35;;;;;;;5.22;3.58;;;17.70;99.90;;;;;;5023137;28;20065;-90
2021/08/04 04:51:07;;;;;;;4.63;3.60;;;17.60;99.90;;;;;;5034209;28;20046;-89
2021/08/04 04:53:33;;;;;;;11.07;3.90;;;17.70;99.90;;;;;;5023320;28;20119;-92
2021/08/04 04:56:00;;;;;;;11.10;4.15;;;17.70;99.90;;;;;;5021006;28;20097;-92
2021/08/04 04:58:31;;;;;;;6.43;3.45;;;17.70;99.90;;;;;;5024587;28;20125;-92
2021/08/04 05:00:57;;;;;;;4.88;3.50;;;17.80;99.90;;;;;;5035411;28;20073;-91
2021/08/04 05:03:26;;;;;;;4.13;3.28;;;17.80;99.90;;;;;;5028360;28;20038;-93
2021/08/04 05:06:02;;;;;;;4.65;3.47;;;17.80;99.90;;;;;;5030190;28;20480;-91
2021/08/04 05:08:37;;;;;;;6.05;3.50;;;17.90;99.90;;;;;;5027833;28;20038;-91
2021/08/04 05:11:03;;;;;;;4.13;3.30;;;17.90;99.90;;;;;;5040340;28;20044;-92
2021/08/04 05:13:28;;;;;;;4.05;3.08;;;17.90;99.90;;;;;;5043843;28;20400;-91
2021/08/04 05:15:54;;;;;;;4.88;2.70;;;18.00;99.90;;;;;;5043119;28;20045;-92
2021/08/04 05:18:20;;;;;;;9.73;2.97;;;18.00;99.90;;;;;;5025923;28;20440;-91
2021/08/04 05:20:46;;;;;;;4.72;2.80;;;18.00;99.90;;;;;;5030071;28;20034;-91
2021/08/04 05:23:12;;;;;;;8.38;2.72;;;18.00;99.90;;;;;;5028348;28;20069;-91
2021/08/04 05:25:39;;;;;;;6.15;2.90;;;18.00;99.70;;;;;;5028299;28;20127;-92
2021/08/04 05:28:08;;;;;;;6.95;3.20;;;18.10;99.80;;;;;;5026153;28;20030;-90
2021/08/04 05:30:34;;;;;;;3.97;3.05;;;18.10;99.80;;;;;;5048818;28;20026;-91
2021/08/04 05:33:02;;;;;;;8.23;3.70;;;18.10;99.70;;;;;;5032424;28;20060;-92
2021/08/04 05:35:34;;;;;;;8.70;4.10;;;18.20;99.70;;;;;;5026419;28;20069;-93
2021/08/04 05:38:03;;;;;;;8.50;3.03;;;18.30;99.60;;;;;;5031184;28;20045;-92
2021/08/04 05:40:31;;;;;;;10.77;3.70;;;18.30;99.40;;;;;;5026068;28;20038;-90
2021/08/04 05:43:05;;;;;;;8.10;3.67;;;18.30;99.30;;;;;;5040418;28;20065;-93
2021/08/04 05:45:31;;;;;;;8.40;3.17;;;18.30;99.30;;;;;;5023657;28;20104;-90
2021/08/04 05:48:14;;;;;;;9.98;3.90;;;18.40;99.30;;;;;;5024606;28;20034;-93
2021/08/04 05:50:43;;;;;;;4.03;3.05;;;18.40;99.30;;;;;;5019840;28;20077;-92
2021/08/04 05:53:14;;;;;;;12.73;2.85;;;18.50;99.20;;;;;;5025252;28;20124;-92
2021/08/04 05:55:40;;;;;;;5.85;3.55;;;18.50;99.20;;;;;;5025846;28;20317;-92
2021/08/04 05:58:13;;;;;;;3.85;2.55;;;18.50;99.10;;;;;;5025183;28;20037;-93
2021/08/04 06:00:41;;;;;;;5.30;3.15;;;18.60;98.80;;;;;;5027540;28;20045;-94
2021/08/04 06:03:07;;;;;;;4.82;3.00;;;18.60;98.70;;;;;;5028040;28;20098;-93
2021/08/04 06:05:33;;;;;;;6.15;3.50;;;18.70;98.60;;;;;;5006946;28;20042;-92
2021/08/04 06:08:05;;;;;;;6.40;3.70;;;18.70;98.40;;;;;;4990212;28;20077;-91
2021/08/04 06:10:35;;;;;;;8.65;3.58;;;18.80;98.30;;;;;;5025176;28;20041;-92
2021/08/04 06:13:06;;;;;;;8.45;3.90;;;18.80;98.50;;;;;;5023013;28;20041;-92
2021/08/04 06:15:32;;;;;;;8.70;3.20;;;18.80;98.50;;;;;;5022961;28;20042;-92
2021/08/04 06:17:58;;;;;;;5.20;4.03;;;18.90;98.60;;;;;;5022107;28;20342;-91
2021/08/04 06:20:27;;;;;;;6.20;3.65;;;18.90;98.00;;;;;;5023167;28;20072;-91
2021/08/04 06:22:55;;;;;;;9.32;3.35;;;18.90;97.80;;;;;;5023744;28;20112;-93
2021/08/04 06:25:31;;;;;;;7.45;3.63;;;18.90;97.80;;;;;;5021042;28;20041;-93
2021/08/04 06:28:00;;;;;;;11.30;4.28;;;18.90;97.90;;;;;;5020670;28;20038;-94
2021/08/04 06:30:27;;;;;;;7.55;3.35;;;18.90;97.60;;;;;;5028650;28;20061;-93
2021/08/04 06:32:53;;;;;;;6.38;3.22;;;19.00;97.80;;;;;;5034875;28;20090;-92
2021/08/04 06:35:22;;;;;;;6.85;3.22;;;19.00;97.40;;;;;;5029754;28;20050;-93
2021/08/04 06:38:04;;;;;;;4.95;3.00;;;19.00;97.50;;;;;;5026988;28;20038;-94
2021/08/04 06:40:30;;;;;;;7.75;3.20;;;19.10;97.30;;;;;;5045050;28;20117;-93
2021/08/04 06:42:56;;;;;;;6.03;2.83;;;19.10;96.70;;;;;;5026300;28;20033;-91
2021/08/04 06:45:29;;;;;;;6.28;3.28;;;19.20;96.70;;;;;;5026464;28;20033;-92
2021/08/04 06:48:14;;;;;;;7.03;3.40;;;19.30;96.90;;;;;;5026108;28;20046;-92
2021/08/04 06:50:41;;;;;;;6.53;2.85;;;19.30;96.60;;;;;;5033789;28;20042;-91
2021/08/04 06:53:07;;;;;;;5.93;3.10;;;19.30;96.70;;;;;;5024846;28;20109;-91
2021/08/04 06:55:33;;;;;;;7.95;3.13;;;19.30;96.50;;;;;;5025468;28;20041;-93
2021/08/04 06:57:59;;;;;;;6.60;2.80;;;19.30;96.30;;;;;;5023994;28;20054;-90
2021/08/04 07:00:29;;;;;;;5.88;2.90;;;19.40;96.70;;;;;;5023040;28;20034;-92
2021/08/04 07:02:55;;;;;;;5.43;2.72;;;19.40;96.30;;;;;;5039238;28;20599;-92
2021/08/04 07:05:21;;;;;;;6.20;3.00;;;19.40;96.20;;;;;;5041442;28;20041;-93
2021/08/04 07:07:52;;;;;;;4.50;2.95;;;19.50;95.90;;;;;;5034269;28;20017;-93
2021/08/04 07:10:18;;;;;;;4.63;2.88;;;19.50;95.80;;;;;;5023225;28;20038;-92
2021/08/04 07:12:44;;;;;;;7.38;2.72;;;19.50;96.00;;;;;;5021976;28;20044;-93
2021/08/04 07:15:14;;;;;;;7.13;2.78;;;19.60;96.30;;;;;;5022470;28;20093;-92
2021/08/04 07:17:45;;;;;;;4.32;3.00;;;19.60;96.00;;;;;;5023285;28;20064;-93
2021/08/04 07:20:14;;;;;;;3.67;2.67;;;19.70;96.30;;;;;;5025614;28;20352;-94
2021/08/04 07:22:40;;;;;;;6.97;3.58;;;19.70;95.70;;;;;;5031025;28;20034;-93
2021/08/04 07:25:07;;;;;;;5.10;3.22;;;19.80;95.80;;;;;;5025044;28;20112;-92
2021/08/04 07:27:33;;;;;;;6.63;3.15;;;19.90;95.90;;;;;;5024664;28;20033;-94
2021/08/04 07:29:58;;;;;;;3.60;2.20;;;19.90;95.40;;;;;;5039860;28;20224;-87
2021/08/04 07:32:26;;;;;;;7.68;2.20;;;20.00;95.70;;;;;;5019150;28;20042;-89
2021/08/04 07:34:53;;;;;;;5.00;2.30;;;20.00;95.20;;;;;;5038294;28;20049;-87
2021/08/04 07:37:18;;;;;;;5.13;2.30;;;20.10;95.00;;;;;;5036805;28;20038;-86
2021/08/04 07:39:50;;;;;;;5.13;2.78;;;20.10;95.20;;;;;;5018829;28;20033;-90
2021/08/04 07:42:15;;;;;;;4.80;2.38;;;20.30;95.00;;;;;;5027124;28;20034;-85
2021/08/04 07:44:41;;;;;;;4.63;2.33;;;20.40;94.90;;;;;;5027754;28;20254;-94
2021/08/04 07:47:14;;;;;;;4.03;3.30;;;20.40;94.70;;;;;;5026804;28;20133;-93
2021/08/04 07:49:40;;;;;;;4.93;2.58;;;20.50;94.40;;;;;;5024758;28;20045;-94
2021/08/04 07:52:11;;;;;;;6.18;2.38;;;20.50;94.50;;;;;;5025414;28;20037;-93
2021/08/04 07:54:39;;;;;;;3.80;2.70;;;20.50;94.40;;;;;;5027472;28;20049;-94
2021/08/04 07:57:06;;;;;;;6.80;2.80;;;20.50;94.40;;;;;;5023266;28;20107;-94
2021/08/04 07:59:32;;;;;;;4.85;2.92;;;20.50;94.30;;;;;;5022823;28;20069;-92
2021/08/04 08:01:57;;;;;;;3.30;2.50;;;20.60;94.20;;;;;;5022446;28;20046;-92
2021/08/04 08:04:23;;;;;;;5.70;2.88;;;20.60;93.40;;;;;;5021890;28;20048;-94
2021/08/04 08:06:49;;;;;;;3.03;2.42;;;20.70;93.80;;;;;;5023953;28;20385;-93
2021/08/04 08:09:29;;;;;;;4.70;2.20;;;20.80;93.90;;;;;;5022584;28;20033;-92
2021/08/04 08:11:58;;;;;;;3.47;1.85;;;20.80;92.80;;;;;;5021573;28;20101;-94
2021/08/04 08:14:29;;;;;;;1.98;1.67;;;20.90;92.20;;;;;;5022287;28;20038;-95
2021/08/04 08:16:55;;;;;;;2.00;1.83;;;20.90;91.90;;;;;;5030611;28;20481;-93
2021/08/04 08:19:21;;;;;;;1.75;1.50;;;20.90;91.70;;;;;;5026637;28;20048;-94
2021/08/04 08:21:47;;;;;;;6.38;1.50;;;21.00;92.60;;;;;;5038301;28;20068;-93
2021/08/04 08:24:14;;;;;;;2.10;1.10;;;21.10;92.00;;;;;;5021924;28;20038;-92
2021/08/04 08:26:40;;;;;;;2.28;1.60;;;21.20;92.30;;;;;;5021534;28;20034;-94
2021/08/04 08:29:22;;;;;;;3.72;1.30;;;21.40;92.40;;;;;;5037180;28;20042;-94
2021/08/04 08:31:48;;;;;;;1.20;1.08;;;21.60;90.50;;;;;;5033822;28;20402;-92
2021/08/04 08:34:29;;;;;;;;;;;;;;;;;;;;;
2021/08/04 08:37:03;;;;;;;1.50;1.40;;;21.70;90.50;;;;;;5023877;28;20188;-93
2021/08/04 08:39:30;;;;;;;3.90;1.50;;;21.80;90.60;;;;;;5027497;28;20054;-92
2021/08/04 08:41:58;;;;;;;0.98;0.88;;;21.80;90.00;;;;;;5028183;28;20045;-93
2021/08/04 08:44:26;;;;;;;3.22;1.08;;;21.70;90.30;;;;;;5026714;28;20042;-93
2021/08/04 08:46:52;;;;;;;3.72;2.08;;;21.60;91.00;;;;;;5043402;28;20041;-93
2021/08/04 08:49:26;;;;;;;2.40;1.25;;;21.60;90.90;;;;;;5027527;28;20409;-93
2021/08/04 08:51:55;;;;;;;1.67;1.30;;;21.60;90.00;;;;;;5052706;28;20053;-91
2021/08/04 08:54:33;;;;;;;3.83;1.10;;;21.60;90.30;;;;;;5037395;28;20077;-93
2021/08/04 08:56:59;;;;;;;1.83;0.80;;;21.70;88.60;;;;;;5043457;28;20038;-94
2021/08/04 08:59:33;;;;;;;4.18;0.90;;;21.70;90.10;;;;;;5026837;28;20357;-95
2021/08/04 09:02:03;;;;;;;1.52;0.90;;;21.90;89.10;;;;;;5043314;28;20057;-92
2021/08/04 09:04:29;;;;;;;1.95;0.90;;;22.00;88.40;;;;;;5010930;28;20049;-92
2021/08/04 09:07:11;;;;;;;1.08;0.80;;;22.10;87.40;;;;;;5049465;28;20369;-93
2021/08/04 09:09:47;;;;;;;1.13;0.98;;;22.20;87.60;;;;;;5027641;28;20389;-93
2021/08/04 09:13:10;;;;;;;1.42;1.17;;;22.50;87.00;;;;;;5026340;28;20034;-96
2021/08/04 09:19:31;;;;;;;1.58;1.40;;;22.80;85.40;;;;;;5007138;28;20041;-96
2021/08/04 09:22:48;;;;;;;;;;;;;;;;;;;;;
2021/08/04 09:32:37;;;;;;;1.00;0.80;;;23.60;80.30;;;;;;5035376;28;20074;-95
2021/08/04 09:39:10;;;;;;;0.93;0.70;;;24.00;79.30;;;;;;4968207;28;20073;-94
2021/08/04 09:42:38;;;;;;;1.40;0.70;;;24.10;79.20;;;;;;5022634;28;20081;-94
2021/08/04 10:29:18;;;;;;;0.63;0.63;;;25.80;70.90;;;;;;4957700;28;20039;-91
2021/08/04 10:32:31;;;;;;;3.70;0.60;;;25.90;71.60;;;;;;4963932;28;20038;-92
2021/08/04 10:59:40;;;;;;;0.90;0.60;;;25.50;74.00;;;;;;4976200;28;20042;-94
2021/08/04 11:02:46;;;;;;;0.60;0.52;;;25.50;75.30;;;;;;4966121;28;20043;-94
2021/08/04 11:05:24;;;;;;;0.73;0.50;;;25.60;73.40;;;;;;4963517;28;20182;-91
2021/08/04 11:11:08;;;;;;;1.42;0.80;;;26.00;73.80;;;;;;5044707;28;20075;-92
2021/08/04 11:13:45;;;;;;;1.55;1.23;;;26.30;74.00;;;;;;5048791;28;20044;-91
2021/08/04 11:16:32;;;;;;;0.60;0.60;;;26.60;74.60;;;;;;5034423;28;20052;-93
2021/08/04 11:19:15;;;;;;;2.80;0.80;;;27.00;73.70;;;;;;5030206;28;20038;-91
2021/08/04 11:38:35;;;;;;;0.70;0.68;;;27.10;68.90;;;;;;4946124;29;20063;-92
2021/08/04 11:48:37;;;;;;;0.93;0.52;;;27.00;67.20;;;;;;4984464;28;20073;-94
2021/08/04 11:51:12;;;;;;;1.05;0.70;;;26.90;68.30;;;;;;4955026;29;20043;-93
2021/08/04 12:11:23;;;;;;;0.60;0.60;;;26.30;68.60;;;;;;4994780;28;20094;-92
2021/08/04 12:14:07;;;;;;;2.45;0.70;;;26.10;71.80;;;;;;5001880;28;20068;-92
2021/08/04 12:17:18;;;;;;;0.63;0.52;;;26.10;70.90;;;;;;5008901;28;20156;-93
2021/08/04 12:19:46;;;;;;;0.95;0.60;;;26.10;69.10;;;;;;5011335;28;20098;-92
2021/08/04 12:22:26;;;;;;;1.20;1.10;;;26.10;69.10;;;;;;5027604;28;20033;-90
2021/08/04 12:24:57;;;;;;;1.17;0.60;;;26.20;69.10;;;;;;5007969;28;20038;-92
2021/08/04 12:27:50;;;;;;;1.52;0.75;;;26.30;69.40;;;;;;5024533;28;20049;-93
2021/08/04 12:30:54;;;;;;;;;;;26.30;69.40;;;;;;5025623;28;20033;-93
2021/08/04 12:33:37;;;;;;;0.80;0.80;;;26.20;66.70;;;;;;4968231;28;19910;-92
2021/08/04 12:36:35;;;;;;;0.90;0.60;;;26.20;68.90;;;;;;5001006;28;20042;-94
2021/08/04 12:39:03;;;;;;;1.10;1.00;;;26.20;68.80;;;;;;5027732;28;20033;-93
2021/08/04 12:41:32;;;;;;;1.30;0.77;;;26.10;67.90;;;;;;5030863;28;20041;-93
2021/08/04 12:43:58;;;;;;;0.82;0.50;;;26.10;69.60;;;;;;5032157;28;20399;-93
2021/08/04 12:46:30;;;;;;;0.50;0.50;;;26.10;70.20;;;;;;5026651;28;20096;-92
2021/08/04 12:48:57;;;;;;;1.38;0.63;;;26.20;69.90;;;;;;5038465;28;20029;-91
2021/08/04 12:51:23;;;;;;;0.70;0.57;;;26.30;65.10;;;;;;5021783;28;20099;-90
2021/08/04 12:54:05;;;;;;;0.80;0.60;;;26.40;66.80;;;;;;5020714;28;20042;-91
2021/08/04 12:56:37;;;;;;;1.45;0.70;;;26.70;66.40;;;;;;5038556;28;20034;-93
2021/08/04 12:59:08;;;;;;;2.10;0.90;;;26.80;65.10;;;;;;5033934;28;20077;-94
2021/08/04 13:01:39;;;;;;;0.90;0.70;;;26.80;65.60;;;;;;5039987;28;20121;-94
2021/08/04 13:04:31;;;;;;;1.85;0.60;;;26.90;64.70;;;;;;5040046;28;20030;-93
2021/08/04 13:07:39;;;;;;;3.15;0.70;;;26.80;66.60;;;;;;5041986;28;20034;-95
2021/08/04 13:10:05;;;;;;;1.42;0.85;;;26.70;66.60;;;;;;5016435;28;20069;-94
2021/08/04 13:12:34;;;;;;;1.75;1.40;;;26.60;70.70;;;;;;5022754;28;20042;-94
2021/08/04 13:15:27;;;;;;;2.30;1.23;;;26.50;69.70;;;;;;5022930;28;20427;-92
2021/08/04 13:17:55;;;;;;;3.80;1.40;;;26.50;71.00;;;;;;5049778;28;20034;-92
2021/08/04 13:20:30;;;;;;;1.63;0.90;;;26.40;70.40;;;;;;5025944;28;20038;-90
2021/08/04 13:23:07;;;;;;;7.32;1.08;;;26.30;71.70;;;;;;5022244;28;20033;-93
2021/08/04 13:25:52;;;;;;;1.42;0.75;;;26.30;72.70;;;;;;5024068;28;20034;-92
2021/08/04 13:28:20;;;;;;;3.60;1.10;;;26.50;69.90;;;;;;5025695;28;20044;-91
2021/08/04 13:30:51;;;;;;;3.85;1.33;;;26.60;71.80;;;;;;5023397;28;20033;-93
2021/08/04 13:33:30;;;;;;;1.88;1.15;;;26.80;73.50;;;;;;5031799;28;20034;-94
2021/08/04 13:36:01;;;;;;;1.00;0.90;;;27.00;70.90;;;;;;5028668;28;20164;-94
2021/08/04 13:38:35;;;;;;;1.30;0.87;;;27.10;69.50;;;;;;5045221;28;20068;-93
2021/08/04 13:41:04;;;;;;;1.23;0.98;;;27.10;70.70;;;;;;5044732;28;20038;-92
2021/08/04 13:43:39;;;;;;;1.02;0.90;;;27.00;69.80;;;;;;5027869;28;20116;-93
2021/08/04 13:46:37;;;;;;;1.92;1.00;;;26.90;69.50;;;;;;5028478;28;20125;-93
2021/08/04 13:56:21;;;;;;;4.45;0.95;;;26.20;72.70;;;;;;5008001;28;20056;-95
2021/08/04 13:59:11;;;;;;;1.90;1.00;;;25.80;73.30;;;;;;4976896;28;20039;-94
2021/08/04 14:02:37;;;;;;;;;;;;;;;;;;;;;
2021/08/04 14:05:48;;;;;;;1.95;1.10;;;25.40;74.30;;;;;;4967892;29;20336;-94
2021/08/04 14:08:17;;;;;;;7.30;1.23;;;25.10;73.40;;;;;;4943441;29;20053;-92
2021/08/04 14:10:44;;;;;;;3.92;1.30;;;25.00;76.70;;;;;;4970081;28;20051;-87
2021/08/04 16:28:07;;;;;;;1.45;1.35;;;25.20;78.30;;;;;;4894637;29;20428;-94
2021/08/04 16:30:33;;;;;;;1.63;1.33;;;25.00;77.90;;;;;;4904283;29;20045;-85
2021/08/04 17:54:18;;;;;;;;;;;;;;;;;;;;;
2021/08/04 18:00:50;;;;;;;3.75;2.28;;;22.60;87.30;;;;;;4955064;28;20457;-94
2021/08/04 18:03:17;;;;;;;3.05;2.00;;;22.50;87.60;;;;;;4947412;29;20043;-92
2021/08/04 18:06:09;;;;;;;4.00;1.85;;;22.30;87.80;;;;;;4969906;28;20038;-92
2021/08/04 18:09:11;;;;;;;;;;;;;;;;;;;;;
2021/08/04 18:12:15;;;;;;;2.00;1.65;;;21.80;88.80;;;;;;5021347;28;20097;-93
2021/08/04 18:14:42;;;;;;;2.50;2.30;;;21.50;89.20;;;;;;4978419;28;20125;-94
2021/08/04 18:17:16;;;;;;;1.85;1.75;;;21.40;89.80;;;;;;5026809;28;20092;-94
2021/08/04 18:20:12;;;;;;;3.95;2.25;;;21.30;90.10;;;;;;5028021;28;20045;-93
2021/08/04 18:22:38;;;;;;;2.50;2.17;;;21.20;90.40;;;;;;5027404;28;20425;-94
2021/08/04 18:25:12;;;;;;;3.65;2.60;;;21.10;90.70;;;;;;5043593;28;20403;-95
2021/08/04 18:27:40;;;;;;;3.22;2.38;;;21.00;90.70;;;;;;5036291;28;20034;-93
2021/08/04 18:57:39;;;;;;;5.03;3.53;;;20.20;93.10;;;;;;4915497;29;20035;-93
2021/08/04 19:51:47;;;;;;;6.03;5.03;;;19.60;95.40;;;;;;5042892;28;20032;-94
2021/08/04 19:54:13;;;;;;;5.70;5.20;;;19.60;95.30;;;;;;4944327;29;20143;-94
2021/08/04 19:56:49;;;;;;;5.88;5.38;;;19.60;95.30;;;;;;4968671;28;20070;-93
2021/08/04 19:59:22;;;;;;;5.88;5.30;;;19.60;95.40;;;;;;4986872;28;20030;-95
2021/08/04 20:01:54;;;;;;;6.30;5.53;;;19.60;95.40;;;;;;5023672;28;20424;-93
2021/08/04 20:04:51;;;;;;;5.03;4.63;;;19.70;95.40;;;;;;5029927;28;20038;-94
2021/08/04 20:07:17;;;;;;;5.60;5.10;;;19.70;95.50;;;;;;5027589;28;20100;-94
2021/08/04 20:09:59;;;;;;;;;;;;;;;;;;;;;
2021/08/04 20:12:28;;;;;;;6.05;5.50;;;19.70;95.30;;;;;;5032685;28;20088;-93
2021/08/04 20:14:54;;;;;;;5.82;5.30;;;19.70;95.20;;;;;;5043936;28;20041;-94
2021/08/04 20:17:20;;;;;;;5.28;4.78;;;19.70;95.10;;;;;;5044108;28;20197;-94
2021/08/04 20:19:46;;;;;;;5.32;4.82;;;19.80;95.20;;;;;;5043012;28;20037;-92
2021/08/04 20:22:11;;;;;;;5.47;4.97;;;19.80;95.10;;;;;;5038039;28;20034;-93
2021/08/04 20:24:37;;;;;;;4.93;4.45;;;19.80;95.10;;;;;;5020787;28;20041;-92
2021/08/04 20:27:03;;;;;;;5.40;5.00;;;19.90;95.10;;;;;;5022256;28;20313;-91
2021/08/04 20:29:29;;;;;;;5.85;5.32;;;19.90;95.10;;;;;;5034237;28;20109;-92
2021/08/04 20:31:55;;;;;;;7.15;5.10;;;19.90;95.10;;;;;;5031312;28;20104;-90